Time;durP1;ratioP1;P1;durP2;ratioP2;P2;SDS_P1;SDS_P2;PMS_P1;PMS_P2;Temp;Humidity;BMP_temperature;BMP_pressure;BME280_temperature;BME280_humidity;BME280_pressure;Samples;Min_cycle;Max_cycle;Signal;HPM_P1;HPM_P2
2023/06/29 00:00:22;;;;;;;10.10;8.30;;;409.80;2355.20;;;;;;5092425;28;20248;-78
2023/06/29 00:02:52;;;;;;;10.77;8.02;;;409.70;2355.20;;;;;;5095217;28;20035;-78
2023/06/29 00:05:21;;;;;;;10.00;7.60;;;409.70;2355.20;;;;;;5096617;28;20024;-80
2023/06/29 00:07:47;;;;;;;12.98;8.43;;;409.90;2355.20;;;;;;5096789;28;20086;-78
2023/06/29 00:10:13;;;;;;;15.20;8.43;;;410.00;2355.20;;;;;;5096274;28;20453;-80
2023/06/29 00:12:40;;;;;;;9.55;7.95;;;409.90;2355.20;;;;;;5096470;28;20126;-79
2023/06/29 00:15:07;;;;;;;8.90;7.25;;;409.90;2355.20;;;;;;5096462;28;20031;-79
2023/06/29 00:17:33;;;;;;;10.05;7.00;;;409.70;2355.20;;;;;;5096076;28;20024;-79
2023/06/29 00:20:00;;;;;;;8.88;7.43;;;409.90;2355.20;;;;;;5096330;28;20020;-79
2023/06/29 00:22:26;;;;;;;9.68;7.53;;;409.90;2355.20;;;;;;5096257;28;20039;-80
2023/06/29 00:24:56;;;;;;;10.65;7.13;;;409.90;2355.20;;;;;;5097315;28;20024;-78
2023/06/29 00:27:22;;;;;;;9.13;7.53;;;409.80;2355.20;;;;;;5096309;28;20457;-79
2023/06/29 00:29:48;;;;;;;9.00;7.28;;;409.80;2355.20;;;;;;5096075;28;20085;-79
2023/06/29 00:32:14;;;;;;;12.32;7.85;;;409.90;2355.20;;;;;;5096148;28;20024;-79
2023/06/29 00:34:40;;;;;;;10.52;8.48;;;409.90;2355.20;;;;;;5096230;28;20081;-78
2023/06/29 00:37:06;;;;;;;8.52;7.18;;;409.90;2355.20;;;;;;5095877;28;20031;-78
2023/06/29 00:39:32;;;;;;;10.10;8.65;;;409.80;2355.20;;;;;;5096079;28;20028;-79
2023/06/29 00:41:58;;;;;;;12.35;7.65;;;409.80;2355.20;;;;;;5095957;28;20028;-79
2023/06/29 00:44:24;;;;;;;8.77;7.10;;;409.80;2355.20;;;;;;5092465;28;20021;-79
2023/06/29 00:46:52;;;;;;;12.40;7.60;;;409.80;2355.20;;;;;;5092721;28;20029;-79
2023/06/29 00:49:21;;;;;;;10.05;7.30;;;409.70;2355.20;;;;;;5075456;28;20510;-79
2023/06/29 00:51:52;;;;;;;14.68;7.63;;;384.90;2329.60;;;;;;5076384;28;20028;-78
2023/06/29 00:54:18;;;;;;;8.10;7.18;;;409.60;2355.20;;;;;;5075441;28;20119;-79
2023/06/29 00:56:45;;;;;;;10.85;8.07;;;409.60;2355.20;;;;;;5076743;28;20031;-79
2023/06/29 00:59:11;;;;;;;14.32;9.48;;;409.60;2355.20;;;;;;5075099;28;20029;-79
2023/06/29 01:01:42;;;;;;;12.20;9.18;;;409.70;2355.20;;;;;;5075412;28;20135;-78
2023/06/29 01:04:09;;;;;;;16.52;8.57;;;409.60;2355.20;;;;;;5086684;28;20020;-79
2023/06/29 01:06:56;;;;;;;12.38;8.77;;;409.60;2355.20;;;;;;5095038;28;20071;-78
2023/06/29 01:09:22;;;;;;;11.45;8.60;;;409.60;2355.20;;;;;;5095527;28;20024;-79
2023/06/29 01:11:49;;;;;;;9.57;7.68;;;384.70;2329.60;;;;;;5096436;28;20028;-80
2023/06/29 01:14:17;;;;;;;11.65;8.38;;;384.70;2329.60;;;;;;5095210;28;20032;-79
2023/06/29 01:16:43;;;;;;;13.00;9.75;;;384.80;2329.60;;;;;;5095498;28;20024;-79
2023/06/29 01:19:13;;;;;;;12.27;10.07;;;384.80;2329.60;;;;;;5095083;28;20028;-80
2023/06/29 01:21:54;;;;;;;13.85;10.48;;;384.80;2329.60;;;;;;5095295;28;20077;-80
2023/06/29 01:24:25;;;;;;;18.98;11.63;;;384.90;2329.60;;;;;;5095292;28;20024;-80
2023/06/29 01:26:51;;;;;;;13.13;11.35;;;384.80;2329.60;;;;;;5095027;28;20029;-80
2023/06/29 01:29:24;;;;;;;14.18;11.13;;;384.90;2329.60;;;;;;5095171;28;20034;-80
2023/06/29 01:31:59;;;;;;;14.93;11.18;;;384.70;2329.60;;;;;;5096237;28;20024;-80
2023/06/29 01:34:28;;;;;;;15.27;10.93;;;384.80;2329.60;;;;;;5094794;28;20032;-79
2023/06/29 01:37:01;;;;;;;13.32;9.88;;;384.70;2329.60;;;;;;5094928;28;20356;-79
2023/06/29 01:39:32;;;;;;;11.57;8.70;;;384.30;2329.60;;;;;;5095031;28;20115;-79
2023/06/29 01:42:00;;;;;;;10.43;8.30;;;384.30;2329.60;;;;;;5094962;28;20031;-80
2023/06/29 01:44:25;;;;;;;11.88;8.98;;;384.60;2329.60;;;;;;5094726;28;20069;-80
2023/06/29 01:46:52;;;;;;;10.90;8.60;;;384.70;2329.60;;;;;;5094535;28;20024;-81
2023/06/29 01:49:18;;;;;;;12.18;8.20;;;384.70;2329.60;;;;;;5094793;28;20024;-80
2023/06/29 01:51:44;;;;;;;10.65;9.10;;;384.70;2329.60;;;;;;5095498;28;20028;-79
2023/06/29 01:54:09;;;;;;;15.73;9.95;;;384.90;2329.60;;;;;;5094424;28;20032;-79
2023/06/29 01:56:35;;;;;;;16.42;8.10;;;384.90;2329.60;;;;;;5095880;28;20111;-79
2023/06/29 01:59:02;;;;;;;12.43;9.60;;;384.90;2329.60;;;;;;5094641;28;20028;-79
2023/06/29 02:01:29;;;;;;;16.85;10.52;;;384.60;2329.60;;;;;;5094081;28;20028;-80
2023/06/29 02:03:55;;;;;;;15.38;10.23;;;384.40;2329.60;;;;;;5095773;28;20067;-79
2023/06/29 02:06:21;;;;;;;18.58;10.55;;;384.20;2329.60;;;;;;5094196;28;20113;-79
2023/06/29 02:08:47;;;;;;;17.33;10.00;;;384.20;2329.60;;;;;;5093990;28;20120;-79
2023/06/29 02:11:13;;;;;;;14.48;8.93;;;384.40;2329.60;;;;;;5095545;28;20119;-78
2023/06/29 02:13:38;;;;;;;13.20;9.23;;;384.30;2329.60;;;;;;5094323;28;20059;-78
2023/06/29 02:16:04;;;;;;;14.32;10.02;;;384.30;2329.60;;;;;;5093935;28;20035;-80
2023/06/29 02:18:31;;;;;;;15.70;10.77;;;359.30;2329.60;;;;;;5095187;28;20020;-78
2023/06/29 02:20:57;;;;;;;11.75;9.80;;;359.30;2329.60;;;;;;5094007;28;20028;-78
2023/06/29 02:23:23;;;;;;;21.80;12.13;;;359.30;2329.60;;;;;;5095091;28;20107;-79
2023/06/29 02:25:49;;;;;;;24.33;12.80;;;359.10;2329.60;;;;;;5093195;28;20070;-79
2023/06/29 02:28:15;;;;;;;24.13;13.48;;;359.30;2329.60;;;;;;5093952;28;20020;-79
2023/06/29 02:30:40;;;;;;;33.88;15.73;;;359.30;2329.60;;;;;;5093624;28;20035;-79
2023/06/29 02:33:06;;;;;;;29.00;15.30;;;359.10;2329.60;;;;;;5094033;28;20035;-79
2023/06/29 02:35:32;;;;;;;24.63;14.82;;;359.00;2329.60;;;;;;5093533;28;20089;-80
2023/06/29 02:37:58;;;;;;;20.98;12.80;;;359.10;2329.60;;;;;;5093750;28;20035;-80
2023/06/29 02:40:23;;;;;;;20.02;13.02;;;359.30;2329.60;;;;;;5093834;28;20127;-79
2023/06/29 02:42:49;;;;;;;20.73;12.68;;;384.00;2329.60;;;;;;5093441;28;20024;-80
2023/06/29 02:45:15;;;;;;;18.55;13.98;;;384.00;2329.60;;;;;;5093799;28;20078;-80
2023/06/29 02:47:41;;;;;;;18.08;13.23;;;359.30;2329.60;;;;;;5093631;28;20080;-81
2023/06/29 02:50:07;;;;;;;25.10;12.73;;;359.30;2329.60;;;;;;5094507;28;20539;-80
2023/06/29 02:52:33;;;;;;;22.92;13.88;;;359.30;2329.60;;;;;;5094757;28;20024;-80
2023/06/29 02:54:59;;;;;;;24.17;14.70;;;359.20;2329.60;;;;;;5089251;28;20029;-80
2023/06/29 02:57:24;;;;;;;21.65;12.82;;;359.30;2329.60;;;;;;5076514;28;20116;-79
2023/06/29 02:59:50;;;;;;;21.42;13.40;;;384.00;2329.60;;;;;;5093234;28;20069;-79
2023/06/29 03:02:16;;;;;;;22.70;13.30;;;359.30;2329.60;;;;;;5094393;28;20024;-80
2023/06/29 03:04:42;;;;;;;27.27;13.60;;;359.30;2329.60;;;;;;5111432;28;20040;-78
2023/06/29 03:07:07;;;;;;;25.65;14.30;;;359.20;2329.60;;;;;;5105682;28;20131;-80
2023/06/29 03:09:33;;;;;;;23.50;15.23;;;359.30;2329.60;;;;;;5094591;28;20024;-79
2023/06/29 03:12:00;;;;;;;31.73;15.80;;;359.00;2329.60;;;;;;5092680;28;20484;-80
2023/06/29 03:14:26;;;;;;;27.25;15.77;;;359.00;2329.60;;;;;;5093120;28;20107;-80
2023/06/29 03:16:52;;;;;;;25.73;15.32;;;359.10;2329.60;;;;;;5093101;28;20085;-79
2023/06/29 03:19:17;;;;;;;22.65;15.23;;;359.00;2329.60;;;;;;5092728;28;20031;-79
2023/06/29 03:21:43;;;;;;;21.95;14.73;;;359.10;2329.60;;;;;;5092978;28;20035;-78
2023/06/29 03:24:09;;;;;;;21.00;13.95;;;359.00;2329.60;;;;;;5093016;28;20027;-79
2023/06/29 03:26:35;;;;;;;23.52;14.52;;;358.90;2329.60;;;;;;5092374;28;20499;-78
2023/06/29 03:29:00;;;;;;;19.05;13.45;;;359.10;2329.60;;;;;;5092917;28;20024;-79
2023/06/29 03:31:26;;;;;;;20.35;14.18;;;359.10;2329.60;;;;;;5092749;28;20044;-80
2023/06/29 03:33:52;;;;;;;23.10;14.18;;;359.20;2329.60;;;;;;5092538;28;20024;-79
2023/06/29 03:36:19;;;;;;;18.60;12.82;;;359.30;2329.60;;;;;;5092721;28;20063;-80
2023/06/29 03:38:44;;;;;;;19.85;12.32;;;359.30;2329.60;;;;;;5092457;28;20380;-81
2023/06/29 03:41:10;;;;;;;19.73;12.23;;;359.30;2329.60;;;;;;5092737;28;20073;-79
2023/06/29 03:43:36;;;;;;;17.65;13.70;;;384.00;2329.60;;;;;;5092795;28;20024;-80
2023/06/29 03:46:02;;;;;;;17.45;12.60;;;359.20;2329.60;;;;;;5094039;28;20031;-79
2023/06/29 03:48:27;;;;;;;22.65;13.52;;;359.30;2329.60;;;;;;5092572;28;20024;-79
2023/06/29 03:50:55;;;;;;;22.98;14.43;;;359.30;2329.60;;;;;;5094111;28;20032;-81
2023/06/29 03:53:21;;;;;;;21.67;14.57;;;359.30;2329.60;;;;;;5092522;28;20388;-79
2023/06/29 03:55:47;;;;;;;21.25;13.25;;;359.30;2329.60;;;;;;5092817;28;20481;-79
2023/06/29 03:58:12;;;;;;;20.40;13.48;;;359.30;2329.60;;;;;;5093934;28;20039;-79
2023/06/29 04:00:38;;;;;;;19.92;14.73;;;384.00;2329.60;;;;;;5092435;28;20392;-79
2023/06/29 04:03:04;;;;;;;27.27;15.75;;;359.10;2329.60;;;;;;5093410;28;20020;-78
2023/06/29 04:05:30;;;;;;;22.30;16.10;;;359.10;2329.60;;;;;;5093519;28;20123;-79
2023/06/29 04:07:56;;;;;;;20.70;14.70;;;359.10;2329.60;;;;;;5092315;28;20428;-79
2023/06/29 04:10:21;;;;;;;25.23;15.93;;;359.20;2329.60;;;;;;5093782;28;20044;-79
2023/06/29 04:12:47;;;;;;;25.35;15.30;;;359.20;2329.60;;;;;;5092578;28;20451;-80
2023/06/29 04:15:13;;;;;;;22.98;14.77;;;359.30;2329.60;;;;;;5092147;28;20046;-78
2023/06/29 04:17:39;;;;;;;23.00;16.10;;;359.20;2329.60;;;;;;5093965;28;20039;-78
2023/06/29 04:20:05;;;;;;;24.63;16.42;;;359.30;2329.60;;;;;;5093649;28;20020;-80
2023/06/29 04:22:31;;;;;;;24.83;16.42;;;359.30;2329.60;;;;;;5092077;28;20020;-78
2023/06/29 04:24:56;;;;;;;22.90;16.10;;;384.00;2329.60;;;;;;5092361;28;20047;-79
2023/06/29 04:27:22;;;;;;;22.42;15.25;;;384.00;2329.60;;;;;;5093931;28;20103;-80
2023/06/29 04:29:48;;;;;;;21.30;15.10;;;359.30;2329.60;;;;;;5093333;28;20024;-79
2023/06/29 04:32:13;;;;;;;22.52;14.52;;;384.00;2329.60;;;;;;5092175;28;20032;-80
2023/06/29 04:34:39;;;;;;;22.20;15.07;;;359.30;2329.60;;;;;;5093447;28;20024;-77
2023/06/29 04:37:06;;;;;;;21.60;15.85;;;359.30;2329.60;;;;;;5092252;28;20090;-80
2023/06/29 04:39:32;;;;;;;23.55;15.30;;;359.30;2329.60;;;;;;5093499;28;20020;-81
2023/06/29 04:42:05;;;;;;;20.58;14.95;;;359.30;2329.60;;;;;;5091758;28;20028;-79
2023/06/29 04:44:31;;;;;;;21.80;14.52;;;359.30;2329.60;;;;;;5091835;28;20025;-80
2023/06/29 04:47:01;;;;;;;24.27;15.35;;;359.30;2329.60;;;;;;5092198;28;20028;-78
2023/06/29 04:49:36;;;;;;;26.38;16.83;;;359.30;2329.60;;;;;;5097139;28;20040;-80
2023/06/29 04:52:03;;;;;;;20.92;14.88;;;359.30;2329.60;;;;;;5095932;28;20032;-78
2023/06/29 04:54:28;;;;;;;22.45;16.02;;;384.00;2329.60;;;;;;5095873;28;20024;-80
2023/06/29 04:56:56;;;;;;;23.77;15.77;;;359.30;2329.60;;;;;;5095426;28;20077;-79
2023/06/29 04:59:23;;;;;;;25.17;17.60;;;359.30;2329.60;;;;;;5095682;28;20348;-79
2023/06/29 05:01:50;;;;;;;24.42;17.63;;;359.20;2329.60;;;;;;5095740;28;20104;-78
2023/06/29 05:04:16;;;;;;;24.65;16.45;;;359.10;2329.60;;;;;;5096718;28;20032;-80
2023/06/29 05:06:41;;;;;;;28.48;17.48;;;359.30;2329.60;;;;;;5095304;28;20048;-79
2023/06/29 05:09:08;;;;;;;25.73;17.15;;;359.20;2329.60;;;;;;5095410;28;20077;-79
2023/06/29 05:11:34;;;;;;;23.80;17.45;;;359.30;2329.60;;;;;;5095198;28;20036;-80
2023/06/29 05:14:00;;;;;;;26.02;17.67;;;359.30;2329.60;;;;;;5095436;28;20472;-80
2023/06/29 05:16:26;;;;;;;27.15;17.35;;;359.20;2329.60;;;;;;5078533;28;20077;-81
2023/06/29 05:18:52;;;;;;;24.80;16.50;;;359.10;2329.60;;;;;;5096416;28;20028;-80
2023/06/29 05:21:18;;;;;;;24.67;16.63;;;359.30;2329.60;;;;;;5095292;28;20028;-80
2023/06/29 05:23:44;;;;;;;24.42;17.13;;;359.30;2329.60;;;;;;5095073;28;20030;-79
2023/06/29 05:26:10;;;;;;;27.98;17.65;;;384.10;2329.60;;;;;;5095199;28;20111;-77
2023/06/29 05:28:36;;;;;;;25.27;17.83;;;384.10;2329.60;;;;;;5095224;28;20028;-79
2023/06/29 05:31:01;;;;;;;28.10;19.10;;;384.10;2329.60;;;;;;5094636;28;20038;-80
2023/06/29 05:33:27;;;;;;;24.95;17.88;;;384.10;2329.60;;;;;;5096686;28;20027;-79
2023/06/29 05:35:53;;;;;;;28.05;18.30;;;384.20;2329.60;;;;;;5094990;28;20024;-79
2023/06/29 05:38:19;;;;;;;27.20;17.23;;;384.10;2329.60;;;;;;5094624;28;20107;-79
2023/06/29 05:40:45;;;;;;;24.75;17.48;;;384.00;2329.60;;;;;;5095021;28;20040;-79
2023/06/29 05:43:10;;;;;;;23.80;18.10;;;384.00;2329.60;;;;;;5094958;28;20020;-80
2023/06/29 05:45:38;;;;;;;22.77;16.90;;;384.10;2329.60;;;;;;5095773;28;20032;-80
2023/06/29 05:48:04;;;;;;;22.90;16.65;;;384.30;2329.60;;;;;;5094919;28;20480;-81
2023/06/29 05:50:29;;;;;;;20.88;16.80;;;384.40;2329.60;;;;;;5094752;28;20036;-80
2023/06/29 05:52:55;;;;;;;23.10;17.00;;;384.60;2329.60;;;;;;5094616;28;20032;-81
2023/06/29 05:55:21;;;;;;;22.63;15.90;;;384.60;2329.60;;;;;;5095826;28;20051;-80
2023/06/29 05:57:47;;;;;;;24.33;18.63;;;384.60;2329.60;;;;;;5094748;28;20115;-79
2023/06/29 06:00:13;;;;;;;25.70;18.80;;;384.40;2329.60;;;;;;5094458;28;20028;-79
2023/06/29 06:02:40;;;;;;;26.17;19.70;;;384.40;2329.60;;;;;;5094736;28;20032;-79
2023/06/29 06:05:09;;;;;;;24.08;19.67;;;384.30;2329.60;;;;;;5095702;28;20032;-79
2023/06/29 06:07:35;;;;;;;28.83;20.08;;;384.40;2329.60;;;;;;5094063;28;20052;-79
2023/06/29 06:10:02;;;;;;;22.15;18.35;;;384.70;2329.60;;;;;;5094392;28;20020;-78
2023/06/29 06:12:28;;;;;;;25.27;17.55;;;384.70;2329.60;;;;;;5094207;28;20426;-77
2023/06/29 06:14:54;;;;;;;22.83;18.23;;;409.60;2355.20;;;;;;5094499;28;20115;-79
2023/06/29 06:17:20;;;;;;;23.50;17.92;;;384.90;2329.60;;;;;;5094469;28;20526;-79
2023/06/29 06:19:46;;;;;;;21.40;18.00;;;409.70;2355.20;;;;;;5093954;28;20119;-80
2023/06/29 06:22:12;;;;;;;22.63;17.48;;;409.70;2355.20;;;;;;5095503;28;20036;-80
2023/06/29 06:24:37;;;;;;;24.98;16.88;;;409.70;2355.20;;;;;;5094420;28;20053;-80
2023/06/29 06:27:03;;;;;;;23.98;18.42;;;409.70;2355.20;;;;;;5096033;28;20024;-80
2023/06/29 06:29:29;;;;;;;22.90;18.33;;;384.90;2329.60;;;;;;5119181;28;20028;-79
2023/06/29 06:31:55;;;;;;;22.92;19.05;;;409.60;2355.20;;;;;;5098306;28;20116;-80
2023/06/29 06:34:21;;;;;;;24.45;20.02;;;409.70;2355.20;;;;;;5094920;28;20024;-81
2023/06/29 06:36:48;;;;;;;20.98;16.65;;;409.60;2355.20;;;;;;5094131;28;20031;-80
2023/06/29 06:39:18;;;;;;;24.25;19.73;;;409.70;2355.20;;;;;;5093827;28;20020;-80
2023/06/29 06:41:43;;;;;;;22.52;18.75;;;410.00;2355.20;;;;;;5093670;28;20471;-80
2023/06/29 06:44:09;;;;;;;24.75;16.90;;;410.20;2355.20;;;;;;5093870;28;20030;-80
2023/06/29 06:46:35;;;;;;;23.80;17.00;;;410.30;2355.20;;;;;;5094851;28;20427;-79
2023/06/29 06:49:01;;;;;;;16.58;14.45;;;435.30;2355.20;;;;;;5093633;28;20047;-82
2023/06/29 06:51:30;;;;;;;18.77;15.25;;;435.30;2355.20;;;;;;5093658;28;20115;-79
2023/06/29 06:53:55;;;;;;;19.92;17.00;;;410.30;2355.20;;;;;;5093704;28;20028;-80
2023/06/29 06:56:22;;;;;;;18.60;15.10;;;435.30;2355.20;;;;;;5074657;28;20387;-82
2023/06/29 06:58:48;;;;;;;20.17;16.17;;;435.50;2355.20;;;;;;5086113;28;20391;-82
2023/06/29 07:01:16;;;;;;;17.00;14.98;;;435.60;2355.20;;;;;;5093216;28;20081;-82
2023/06/29 07:03:42;;;;;;;16.10;14.35;;;436.00;2355.20;;;;;;5092408;28;20115;-82
2023/06/29 07:06:08;;;;;;;17.52;15.15;;;436.00;2355.20;;;;;;5093052;28;20079;-82
2023/06/29 07:08:35;;;;;;;19.35;16.48;;;460.80;2380.80;;;;;;5094619;28;20080;-82
2023/06/29 07:11:01;;;;;;;18.75;15.32;;;461.00;2380.80;;;;;;5092605;28;20043;-81
2023/06/29 07:13:27;;;;;;;18.20;15.48;;;461.30;2380.80;;;;;;5093036;28;20028;-82
2023/06/29 07:15:53;;;;;;;17.67;13.90;;;461.20;2380.80;;;;;;5092944;28;20031;-81
2023/06/29 07:18:20;;;;;;;21.25;14.07;;;461.10;2380.80;;;;;;5094720;28;20619;-82
2023/06/29 07:20:46;;;;;;;18.80;14.73;;;461.10;2380.80;;;;;;5093022;28;20401;-81
2023/06/29 07:23:11;;;;;;;17.52;15.05;;;461.20;2380.80;;;;;;5092719;28;20028;-82
2023/06/29 07:25:37;;;;;;;20.13;15.75;;;460.90;2380.80;;;;;;5092918;28;20024;-82
2023/06/29 07:28:03;;;;;;;20.77;17.33;;;460.90;2380.80;;;;;;5094276;28;20027;-82
2023/06/29 07:30:29;;;;;;;17.33;15.43;;;460.90;2380.80;;;;;;5093781;28;20126;-81
2023/06/29 07:32:54;;;;;;;16.92;14.70;;;461.10;2380.80;;;;;;5092719;28;20111;-82
2023/06/29 07:35:20;;;;;;;18.58;14.35;;;461.40;2380.80;;;;;;5092833;28;20023;-82
2023/06/29 07:37:46;;;;;;;18.50;16.52;;;461.60;2380.80;;;;;;5092349;28;20086;-82
2023/06/29 07:40:12;;;;;;;18.70;16.80;;;461.70;2380.80;;;;;;5092940;28;20027;-82
2023/06/29 07:42:38;;;;;;;16.77;14.75;;;461.70;2380.80;;;;;;5092672;28;20127;-82
2023/06/29 07:45:05;;;;;;;16.85;14.98;;;461.60;2380.80;;;;;;5092289;28;20020;-82
2023/06/29 07:47:31;;;;;;;17.42;15.00;;;461.70;2380.80;;;;;;5093543;28;20073;-82
2023/06/29 07:49:57;;;;;;;18.10;14.52;;;486.40;2380.80;;;;;;5092615;28;20028;-82
2023/06/29 07:52:22;;;;;;;19.17;14.90;;;486.40;2380.80;;;;;;5093539;28;20036;-82
2023/06/29 07:54:51;;;;;;;16.60;14.32;;;461.70;2380.80;;;;;;5093760;28;20034;-82
2023/06/29 07:57:18;;;;;;;19.65;14.85;;;461.60;2380.80;;;;;;5092488;28;20047;-82
2023/06/29 07:59:44;;;;;;;18.30;14.07;;;486.50;2380.80;;;;;;5092288;28;20422;-82
2023/06/29 08:02:09;;;;;;;14.98;13.38;;;486.70;2380.80;;;;;;5092568;28;20524;-82
2023/06/29 08:04:35;;;;;;;18.60;13.15;;;486.70;2380.80;;;;;;5092172;28;20028;-82
2023/06/29 08:07:01;;;;;;;15.75;14.15;;;487.00;2380.80;;;;;;5093680;28;20052;-82
2023/06/29 08:09:27;;;;;;;13.20;11.77;;;487.20;2380.80;;;;;;5092018;28;20050;-82
2023/06/29 08:11:53;;;;;;;13.45;12.05;;;486.90;2380.80;;;;;;5093193;28;20456;-80
2023/06/29 08:14:18;;;;;;;17.02;14.57;;;487.00;2380.80;;;;;;5092140;28;20031;-83
2023/06/29 08:16:44;;;;;;;13.93;12.48;;;487.10;2380.80;;;;;;5093301;28;20103;-82
2023/06/29 08:19:10;;;;;;;12.80;11.50;;;512.00;2380.80;;;;;;5091003;28;20474;-78
2023/06/29 08:21:36;;;;;;;16.48;11.68;;;512.20;2380.80;;;;;;5091429;28;20035;-79
2023/06/29 08:24:01;;;;;;;15.48;11.00;;;512.50;2380.80;;;;;;5094158;28;20052;-75
2023/06/29 08:26:28;;;;;;;20.00;10.98;;;512.60;2380.80;;;;;;5096075;28;20024;-76
2023/06/29 08:28:54;;;;;;;11.32;9.27;;;512.90;2380.80;;;;;;5096224;28;20425;-76
2023/06/29 08:31:20;;;;;;;11.18;9.48;;;512.50;2380.80;;;;;;5097556;28;20031;-76
2023/06/29 08:33:46;;;;;;;13.93;9.70;;;512.60;2380.80;;;;;;5095624;28;20036;-77
2023/06/29 08:36:12;;;;;;;11.75;9.50;;;512.90;2380.80;;;;;;5096933;28;20081;-76
2023/06/29 08:38:37;;;;;;;14.32;9.73;;;537.80;2406.40;;;;;;5096817;28;20024;-77
2023/06/29 08:41:05;;;;;;;9.52;8.45;;;538.10;2406.40;;;;;;5096463;28;20020;-78
2023/06/29 08:43:31;;;;;;;12.55;9.32;;;537.90;2406.40;;;;;;5095146;28;20032;-77
2023/06/29 08:45:56;;;;;;;10.70;8.63;;;538.10;2406.40;;;;;;5094633;28;20020;-76
2023/06/29 08:48:23;;;;;;;10.07;8.32;;;538.30;2406.40;;;;;;5095097;28;20024;-78
2023/06/29 08:50:56;;;;;;;9.95;8.63;;;538.40;2406.40;;;;;;5095975;28;20035;-76
2023/06/29 08:53:22;;;;;;;12.05;8.23;;;538.50;2406.40;;;;;;5095633;28;20028;-77
2023/06/29 08:55:49;;;;;;;10.05;8.48;;;563.40;2432.00;;;;;;5096250;28;20024;-76
2023/06/29 08:58:15;;;;;;;10.88;7.55;;;538.50;2406.40;;;;;;5095619;28;20474;-76
2023/06/29 09:00:42;;;;;;;12.05;8.90;;;538.50;2406.40;;;;;;5095058;28;20020;-78
2023/06/29 09:03:09;;;;;;;9.20;7.82;;;538.40;2406.40;;;;;;5095361;28;20031;-77
2023/06/29 09:05:37;;;;;;;9.45;8.20;;;563.30;2432.00;;;;;;5094662;28;20173;-76
2023/06/29 09:08:03;;;;;;;10.63;7.43;;;563.60;2432.00;;;;;;5094545;28;20028;-76
2023/06/29 09:10:29;;;;;;;7.95;6.97;;;563.80;2432.00;;;;;;5094677;28;20399;-76
2023/06/29 09:12:55;;;;;;;10.60;7.63;;;563.60;2432.00;;;;;;5094569;28;20028;-77
2023/06/29 09:15:25;;;;;;;10.00;7.65;;;563.80;2432.00;;;;;;5096087;28;20028;-76
2023/06/29 09:17:55;;;;;;;12.27;7.60;;;563.90;2432.00;;;;;;5096613;28;20035;-76
2023/06/29 09:20:21;;;;;;;9.23;7.78;;;563.60;2432.00;;;;;;5096372;28;20415;-76
2023/06/29 09:22:51;;;;;;;10.40;7.88;;;563.80;2432.00;;;;;;5094380;28;20028;-78
2023/06/29 09:25:18;;;;;;;9.93;7.30;;;563.90;2432.00;;;;;;5095955;28;20094;-77
2023/06/29 09:27:44;;;;;;;9.88;7.75;;;563.90;2432.00;;;;;;5096066;28;20066;-76
2023/06/29 09:30:18;;;;;;;8.95;7.85;;;564.00;2432.00;;;;;;5094693;28;20502;-77
2023/06/29 09:32:44;;;;;;;12.07;7.95;;;588.90;2432.00;;;;;;5095025;28;20031;-76
2023/06/29 09:35:10;;;;;;;9.40;7.50;;;589.20;2432.00;;;;;;5094862;28;20020;-77
2023/06/29 09:37:36;;;;;;;9.25;7.53;;;589.50;2432.00;;;;;;5094844;28;20464;-78
2023/06/29 09:40:12;;;;;;;9.27;7.30;;;589.70;2432.00;;;;;;5095830;28;20027;-78
2023/06/29 09:42:38;;;;;;;8.05;6.95;;;589.50;2432.00;;;;;;5094661;28;20032;-80
2023/06/29 09:45:11;;;;;;;6.55;5.88;;;589.50;2432.00;;;;;;5091983;28;20455;-78
2023/06/29 09:47:40;;;;;;;8.38;7.28;;;589.20;2432.00;;;;;;5094835;28;20043;-76
2023/06/29 09:50:20;;;;;;;10.73;6.90;;;588.90;2432.00;;;;;;5095382;28;20043;-76
2023/06/29 09:52:47;;;;;;;9.15;7.35;;;588.80;2432.00;;;;;;5096845;28;20436;-76
2023/06/29 09:55:14;;;;;;;8.60;6.90;;;589.00;2432.00;;;;;;5094727;28;20475;-77
2023/06/29 09:57:49;;;;;;;7.68;6.82;;;589.00;2432.00;;;;;;5110239;28;20024;-78
2023/06/29 10:00:16;;;;;;;8.77;6.70;;;589.00;2432.00;;;;;;5110091;28;20383;-78
2023/06/29 10:02:42;;;;;;;9.48;7.40;;;589.20;2432.00;;;;;;5095346;28;20024;-77
2023/06/29 10:05:09;;;;;;;8.18;6.97;;;589.50;2432.00;;;;;;5108719;28;20024;-78
2023/06/29 10:07:37;;;;;;;7.53;6.22;;;614.40;2432.00;;;;;;5093477;28;20094;-79
2023/06/29 10:10:07;;;;;;;6.68;5.97;;;614.70;2432.00;;;;;;5095518;28;20024;-80
2023/06/29 10:12:33;;;;;;;9.25;6.72;;;614.80;2432.00;;;;;;5093974;28;20082;-80
2023/06/29 10:15:08;;;;;;;8.27;5.75;;;614.80;2432.00;;;;;;5095075;28;20060;-80
2023/06/29 10:17:49;;;;;;;9.63;6.20;;;614.80;2432.00;;;;;;5093946;28;20097;-80
2023/06/29 10:20:17;;;;;;;7.32;6.60;;;614.60;2432.00;;;;;;5093424;28;20482;-80
2023/06/29 10:22:45;;;;;;;7.43;6.30;;;614.40;2432.00;;;;;;5093465;28;20074;-78
2023/06/29 10:25:15;;;;;;;8.38;5.88;;;589.70;2432.00;;;;;;5094187;28;20466;-79
2023/06/29 10:27:42;;;;;;;7.78;6.93;;;589.60;2432.00;;;;;;5094942;28;20020;-79
2023/06/29 10:30:08;;;;;;;8.50;5.88;;;589.50;2432.00;;;;;;5093341;28;20498;-79
2023/06/29 10:32:39;;;;;;;7.43;6.13;;;589.50;2432.00;;;;;;5094408;28;20016;-78
2023/06/29 10:35:09;;;;;;;6.95;6.03;;;589.70;2432.00;;;;;;5094749;28;20039;-77
2023/06/29 10:37:37;;;;;;;6.85;6.13;;;614.50;2432.00;;;;;;5091092;28;20454;-79
2023/06/29 10:40:27;;;;;;;9.05;6.00;;;614.70;2432.00;;;;;;5094261;28;20084;-77
2023/06/29 10:42:54;;;;;;;6.05;5.45;;;615.10;2432.00;;;;;;5107837;28;20372;-79
2023/06/29 10:45:21;;;;;;;7.63;5.57;;;640.10;2432.00;;;;;;5109312;28;20028;-81
2023/06/29 10:47:56;;;;;;;6.30;4.70;;;640.20;2432.00;;;;;;5093161;28;20024;-79
2023/06/29 10:50:34;;;;;;;6.20;5.30;;;640.40;2406.40;;;;;;5088530;28;20024;-76
2023/06/29 10:53:02;;;;;;;7.40;5.30;;;640.60;2432.00;;;;;;5093274;28;20028;-78
2023/06/29 10:55:39;;;;;;;8.50;5.97;;;640.70;2380.80;;;;;;5083557;28;20100;-78
2023/06/29 10:58:21;;;;;;;7.90;5.45;;;640.90;2329.60;;;;;;5082303;28;20057;-79
2023/06/29 11:00:48;;;;;;;8.32;5.53;;;665.70;2406.40;;;;;;5093704;28;20357;-79
2023/06/29 11:03:15;;;;;;;7.70;5.10;;;666.10;2406.40;;;;;;5092609;28;20421;-78
2023/06/29 11:05:41;;;;;;;7.90;4.78;;;666.20;2304.00;;;;;;5094126;28;20059;-78
2023/06/29 11:08:07;;;;;;;7.03;4.75;;;640.80;2278.40;;;;;;5093797;28;20023;-81
2023/06/29 11:10:34;;;;;;;8.00;5.35;;;640.60;2329.60;;;;;;5093469;28;20031;-77
2023/06/29 11:13:00;;;;;;;7.53;5.70;;;640.60;2355.20;;;;;;5092618;28;20020;-79
2023/06/29 11:15:27;;;;;;;5.60;4.65;;;640.20;2304.00;;;;;;5090786;28;20120;-78
2023/06/29 11:17:53;;;;;;;6.28;5.03;;;640.70;2329.60;;;;;;5107031;28;20024;-78
2023/06/29 11:20:23;;;;;;;9.57;4.95;;;615.20;2304.00;;;;;;5109402;28;20441;-78
2023/06/29 11:22:51;;;;;;;9.68;5.28;;;615.30;2355.20;;;;;;5094056;28;20103;-78
2023/06/29 11:25:17;;;;;;;7.82;5.88;;;640.10;2432.00;;;;;;5092870;28;20028;-80
2023/06/29 11:27:44;;;;;;;6.30;5.13;;;640.10;2380.80;;;;;;5092544;28;20027;-79
2023/06/29 11:30:11;;;;;;;6.32;4.70;;;615.30;2406.40;;;;;;5092749;28;20032;-78
2023/06/29 11:32:38;;;;;;;7.00;4.80;;;615.10;2380.80;;;;;;5093268;28;20028;-77
2023/06/29 11:35:11;;;;;;;6.63;5.22;;;615.10;2432.00;;;;;;5093273;28;20349;-79
2023/06/29 11:37:39;;;;;;;7.80;6.18;;;615.10;2406.40;;;;;;5093419;28;20344;-79
2023/06/29 11:40:15;;;;;;;5.90;5.30;;;615.30;2380.80;;;;;;5093864;28;20052;-80
2023/06/29 11:42:42;;;;;;;6.57;5.03;;;640.20;2406.40;;;;;;5092224;28;20035;-79
2023/06/29 11:45:08;;;;;;;8.80;4.97;;;640.50;2355.20;;;;;;5093959;28;20024;-80
2023/06/29 11:47:35;;;;;;;5.40;4.00;;;665.60;2329.60;;;;;;5092704;28;20071;-80
2023/06/29 11:50:03;;;;;;;6.55;4.43;;;640.80;2176.00;;;;;;5092258;28;20032;-78
2023/06/29 11:52:30;;;;;;;8.65;4.75;;;665.70;2252.80;;;;;;5092448;28;20039;-80
2023/06/29 11:55:00;;;;;;;6.35;5.28;;;666.20;2304.00;;;;;;5092527;28;20035;-80
2023/06/29 11:57:26;;;;;;;6.63;5.55;;;666.50;2278.40;;;;;;5091776;28;20036;-78
2023/06/29 11:59:52;;;;;;;6.10;5.40;;;691.40;2201.60;;;;;;5092270;28;20094;-78
2023/06/29 12:02:19;;;;;;;7.22;5.32;;;691.60;2227.20;;;;;;5092490;28;20028;-75
2023/06/29 12:04:56;;;;;;;8.98;7.05;;;691.90;2176.00;;;;;;5092724;28;20016;-76